Time;durP1;ratioP1;P1;durP2;ratioP2;P2;SDS_P1;SDS_P2;PMS_P1;PMS_P2;Temp;Humidity;BMP_temperature;BMP_pressure;BME280_temperature;BME280_humidity;BME280_pressure;Samples;Min_cycle;Max_cycle;Signal;HPM_P1;HPM_P2
2022/09/01 00:00:51;;;;;;;1.27;1.00;;;;;;;;;;5011214;28;20185;-75
2022/09/01 00:03:21;;;;;;;2.05;1.10;;;;;;;;;;4998304;28;20230;-76
2022/09/01 00:05:52;;;;;;;1.92;1.20;;;;;;;;;;4990914;28;20215;-74
2022/09/01 00:08:18;;;;;;;4.13;1.05;;;;;;;;;;5007119;28;20175;-74
2022/09/01 00:10:43;;;;;;;1.40;1.08;;;;;;;;;;5013394;28;20431;-74
2022/09/01 00:13:08;;;;;;;2.30;1.25;;;;;;;;;;5014098;28;20254;-75
2022/09/01 00:15:34;;;;;;;2.25;0.95;;;;;;;;;;5011468;28;20202;-74
2022/09/01 00:18:00;;;;;;;1.20;1.10;;;;;;;;;;5007556;28;20614;-74
2022/09/01 00:20:25;;;;;;;2.60;1.20;;;;;;;;;;4992715;28;20218;-75
2022/09/01 00:22:50;;;;;;;2.55;1.20;;;;;;;;;;5013015;28;20181;-74
2022/09/01 00:25:18;;;;;;;4.78;1.10;;;;;;;;;;5013050;28;20194;-75
2022/09/01 00:27:44;;;;;;;2.88;1.40;;;;;;;;;;5020636;28;20182;-75
2022/09/01 00:30:09;;;;;;;2.92;1.38;;;;;;;;;;5013834;28;20645;-75
2022/09/01 00:32:34;;;;;;;1.27;1.15;;;;;;;;;;5012475;28;20779;-74
2022/09/01 00:35:00;;;;;;;1.73;1.30;;;;;;;;;;5013039;28;20278;-74
2022/09/01 00:37:25;;;;;;;2.47;1.38;;;;;;;;;;5003435;28;20180;-74
2022/09/01 00:39:50;;;;;;;2.75;1.30;;;;;;;;;;4993464;28;20179;-75
2022/09/01 00:42:15;;;;;;;1.10;1.00;;;;;;;;;;5011615;28;20179;-74
2022/09/01 00:44:40;;;;;;;5.20;1.30;;;;;;;;;;5012124;28;20628;-75
2022/09/01 00:47:06;;;;;;;2.08;1.25;;;;;;;;;;5012060;28;20198;-74
2022/09/01 00:49:39;;;;;;;1.33;1.02;;;;;;;;;;4994828;28;20179;-75
2022/09/01 00:52:09;;;;;;;1.63;1.30;;;;;;;;;;5011949;28;20203;-74
2022/09/01 00:54:38;;;;;;;2.03;1.65;;;;;;;;;;5012118;28;20199;-76
2022/09/01 00:57:04;;;;;;;2.67;1.50;;;;;;;;;;5011364;28;20660;-75
2022/09/01 00:59:29;;;;;;;2.60;1.30;;;;;;;;;;5010305;28;22042;-75
2022/09/01 01:01:55;;;;;;;1.60;1.15;;;;;;;;;;5012102;28;20175;-75
2022/09/01 01:04:20;;;;;;;2.88;1.50;;;;;;;;;;5012471;28;20565;-75
2022/09/01 01:06:48;;;;;;;3.08;1.42;;;;;;;;;;5011414;28;20636;-74
2022/09/01 01:09:14;;;;;;;4.53;1.30;;;;;;;;;;5007540;28;20175;-75
2022/09/01 01:11:39;;;;;;;1.75;1.52;;;;;;;;;;5009772;28;20213;-73
2022/09/01 01:14:11;;;;;;;1.60;1.20;;;;;;;;;;5011508;28;20194;-75
2022/09/01 01:16:39;;;;;;;1.60;1.38;;;;;;;;;;5010963;28;20171;-75
2022/09/01 01:19:05;;;;;;;2.95;1.48;;;;;;;;;;5010351;28;20648;-76
2022/09/01 01:24:27;;;;;;;3.20;1.50;;;;;;;;;;5009265;28;20291;-75
2022/09/01 01:26:55;;;;;;;3.47;1.75;;;;;;;;;;4993474;28;20182;-74
2022/09/01 01:29:21;;;;;;;5.97;2.08;;;;;;;;;;5007012;28;20637;-74
2022/09/01 01:31:51;;;;;;;1.80;1.20;;;;;;;;;;4992065;28;20211;-75
2022/09/01 01:34:18;;;;;;;1.80;1.55;;;;;;;;;;4992882;28;20191;-72
2022/09/01 01:36:44;;;;;;;1.92;1.73;;;;;;;;;;4994147;28;20273;-72
2022/09/01 01:39:11;;;;;;;2.72;1.95;;;;;;;;;;5010283;28;20638;-76
2022/09/01 01:41:43;;;;;;;3.15;1.50;;;;;;;;;;5010591;28;20738;-73
2022/09/01 01:44:10;;;;;;;3.42;1.23;;;;;;;;;;5010782;28;20623;-75
2022/09/01 01:46:36;;;;;;;2.03;1.50;;;;;;;;;;5011102;28;20191;-73
2022/09/01 01:49:02;;;;;;;2.65;1.67;;;;;;;;;;5006920;28;20183;-73
2022/09/01 01:51:27;;;;;;;1.85;1.38;;;;;;;;;;5012433;28;20217;-73
2022/09/01 01:53:54;;;;;;;2.63;1.80;;;;;;;;;;5017697;28;20282;-73
2022/09/01 01:56:22;;;;;;;5.50;1.70;;;;;;;;;;5018616;28;20201;-74
2022/09/01 01:58:47;;;;;;;2.45;1.67;;;;;;;;;;4991100;28;20179;-73
2022/09/01 02:01:13;;;;;;;2.72;1.55;;;;;;;;;;5015506;28;20189;-73
2022/09/01 02:03:38;;;;;;;2.28;1.70;;;;;;;;;;5011918;28;20202;-73
2022/09/01 02:06:07;;;;;;;3.85;1.50;;;;;;;;;;5008545;28;20195;-73
2022/09/01 02:08:33;;;;;;;3.20;1.65;;;;;;;;;;5005967;28;20665;-74
2022/09/01 02:10:58;;;;;;;3.53;1.77;;;;;;;;;;5016333;28;20213;-74
2022/09/01 02:13:29;;;;;;;4.93;1.50;;;;;;;;;;5010285;28;20222;-75
2022/09/01 02:15:55;;;;;;;3.28;1.40;;;;;;;;;;5015370;28;20196;-73
2022/09/01 02:18:26;;;;;;;2.22;1.63;;;;;;;;;;5015148;28;20528;-73
2022/09/01 02:20:52;;;;;;;2.30;1.83;;;;;;;;;;5017034;28;20202;-73
2022/09/01 02:23:22;;;;;;;3.90;2.38;;;;;;;;;;5013428;28;20645;-77
2022/09/01 02:25:48;;;;;;;3.72;1.75;;;;;;;;;;5008989;28;20696;-73
2022/09/01 02:28:15;;;;;;;2.60;1.50;;;;;;;;;;4990657;28;20671;-73
2022/09/01 02:30:45;;;;;;;3.67;1.65;;;;;;;;;;5013662;28;20182;-73
2022/09/01 02:33:17;;;;;;;4.32;1.40;;;;;;;;;;5016370;28;20179;-75
2022/09/01 02:35:43;;;;;;;3.17;1.17;;;;;;;;;;4988021;28;20209;-74
2022/09/01 02:38:08;;;;;;;1.90;1.45;;;;;;;;;;5008843;28;20171;-74
2022/09/01 02:40:33;;;;;;;2.17;1.48;;;;;;;;;;5010121;28;20191;-75
2022/09/01 02:42:59;;;;;;;4.05;1.80;;;;;;;;;;5010868;28;20171;-75
2022/09/01 02:45:25;;;;;;;4.38;1.50;;;;;;;;;;5010829;28;20191;-73
2022/09/01 02:47:52;;;;;;;2.03;1.75;;;;;;;;;;5011119;28;20178;-73
2022/09/01 02:50:18;;;;;;;2.42;1.65;;;;;;;;;;5011193;28;20261;-73
2022/09/01 02:52:48;;;;;;;2.45;1.38;;;;;;;;;;4987061;28;20298;-74
2022/09/01 02:55:16;;;;;;;1.95;1.50;;;;;;;;;;5010072;28;20286;-73
2022/09/01 02:57:42;;;;;;;2.20;1.10;;;;;;;;;;5009538;28;20269;-75
2022/09/01 03:00:19;;;;;;;2.38;1.63;;;;;;;;;;5005215;28;20301;-74
2022/09/01 03:02:46;;;;;;;2.30;1.50;;;;;;;;;;4990628;28;20178;-74
2022/09/01 03:05:11;;;;;;;1.63;1.27;;;;;;;;;;5010432;28;20210;-73
2022/09/01 03:07:36;;;;;;;1.67;1.40;;;;;;;;;;5011199;28;20190;-74
2022/09/01 03:10:02;;;;;;;3.15;1.83;;;;;;;;;;5007703;28;20202;-73
2022/09/01 03:12:27;;;;;;;3.05;1.55;;;;;;;;;;5008783;28;20203;-73
2022/09/01 03:14:52;;;;;;;3.25;1.40;;;;;;;;;;5009631;28;20714;-73
2022/09/01 03:17:17;;;;;;;1.95;1.52;;;;;;;;;;5010497;28;20187;-73
2022/09/01 03:19:44;;;;;;;2.35;1.48;;;;;;;;;;5009488;28;20250;-73
2022/09/01 03:22:09;;;;;;;2.88;1.50;;;;;;;;;;5010787;28;20198;-74
2022/09/01 03:24:35;;;;;;;1.50;1.40;;;;;;;;;;5009308;28;20700;-73
2022/09/01 03:27:00;;;;;;;2.20;1.60;;;;;;;;;;5008544;28;20211;-73
2022/09/01 03:29:25;;;;;;;1.55;1.23;;;;;;;;;;5008926;28;20645;-73
2022/09/01 03:31:50;;;;;;;3.17;1.50;;;;;;;;;;5008271;28;20273;-74
2022/09/01 03:34:19;;;;;;;2.03;1.80;;;;;;;;;;5009439;28;20230;-74
2022/09/01 03:36:48;;;;;;;3.78;1.70;;;;;;;;;;5008326;28;20178;-74
2022/09/01 03:39:14;;;;;;;2.20;1.42;;;;;;;;;;4996398;28;20187;-74
2022/09/01 03:41:40;;;;;;;2.53;1.90;;;;;;;;;;5008963;28;20241;-74
2022/09/01 03:44:05;;;;;;;2.10;1.48;;;;;;;;;;5009011;28;20225;-74
2022/09/01 03:46:31;;;;;;;2.45;1.33;;;;;;;;;;5010752;28;20211;-74
2022/09/01 03:48:59;;;;;;;1.65;1.40;;;;;;;;;;5008719;28;20179;-74
2022/09/01 03:51:24;;;;;;;1.73;1.63;;;;;;;;;;5011980;28;20199;-74
2022/09/01 03:53:53;;;;;;;2.10;1.70;;;;;;;;;;5002262;28;20741;-73
2022/09/01 03:56:19;;;;;;;1.65;1.40;;;;;;;;;;5010572;28;20171;-74
2022/09/01 03:58:45;;;;;;;3.45;1.73;;;;;;;;;;5011816;28;20171;-74
2022/09/01 04:01:11;;;;;;;2.13;1.48;;;;;;;;;;5013717;28;20179;-74
2022/09/01 04:03:37;;;;;;;3.25;1.55;;;;;;;;;;5013597;28;20190;-74
2022/09/01 04:06:02;;;;;;;3.80;1.73;;;;;;;;;;5013828;28;20214;-74
2022/09/01 04:08:29;;;;;;;1.88;1.55;;;;;;;;;;5011874;28;20726;-74
2022/09/01 04:10:55;;;;;;;3.80;1.90;;;;;;;;;;5012818;28;20289;-74
2022/09/01 04:13:25;;;;;;;2.22;1.98;;;;;;;;;;5004559;28;20262;-74
2022/09/01 04:15:51;;;;;;;2.05;1.40;;;;;;;;;;4994205;28;20202;-74
2022/09/01 04:18:20;;;;;;;2.63;1.70;;;;;;;;;;5013247;28;20167;-74
2022/09/01 04:21:06;;;;;;;2.45;1.45;;;;;;;;;;5010577;28;20597;-74
2022/09/01 04:23:33;;;;;;;3.40;1.65;;;;;;;;;;5013051;28;20245;-74
2022/09/01 04:26:10;;;;;;;1.55;1.45;;;;;;;;;;5013652;28;20179;-74
2022/09/01 04:28:39;;;;;;;3.97;1.63;;;;;;;;;;5012110;28;20235;-74
2022/09/01 04:31:06;;;;;;;1.70;1.60;;;;;;;;;;5012008;28;20677;-74
2022/09/01 04:33:38;;;;;;;2.05;1.65;;;;;;;;;;5011729;28;20211;-72
2022/09/01 04:36:18;;;;;;;1.60;1.50;;;;;;;;;;5011590;28;20395;-74
2022/09/01 04:38:44;;;;;;;2.10;1.90;;;;;;;;;;5008032;28;20215;-72
2022/09/01 04:41:15;;;;;;;2.90;1.50;;;;;;;;;;5012957;28;20211;-72
2022/09/01 04:43:40;;;;;;;3.58;2.13;;;;;;;;;;5011463;28;20612;-74
2022/09/01 04:46:05;;;;;;;2.90;1.73;;;;;;;;;;5012493;28;20281;-74
2022/09/01 04:48:30;;;;;;;3.08;1.60;;;;;;;;;;5010445;28;20563;-73
2022/09/01 04:50:57;;;;;;;4.38;1.55;;;;;;;;;;4993767;28;20457;-72
2022/09/01 04:53:23;;;;;;;1.80;1.40;;;;;;;;;;5012000;28;20205;-73
2022/09/01 04:55:53;;;;;;;1.80;1.70;;;;;;;;;;5018002;28;20306;-73
2022/09/01 04:58:18;;;;;;;2.00;1.90;;;;;;;;;;4993925;28;20199;-74
2022/09/01 05:00:46;;;;;;;3.22;1.70;;;;;;;;;;5009697;28;20611;-74
2022/09/01 05:03:12;;;;;;;2.22;1.50;;;;;;;;;;5012548;28;20172;-74
2022/09/01 05:05:42;;;;;;;2.22;1.40;;;;;;;;;;5012344;28;20218;-72
2022/09/01 05:08:12;;;;;;;2.10;1.60;;;;;;;;;;5009686;28;20183;-70
2022/09/01 05:10:40;;;;;;;2.60;1.83;;;;;;;;;;5012032;28;20183;-72
2022/09/01 05:13:08;;;;;;;5.15;1.60;;;;;;;;;;5007763;28;20191;-72
2022/09/01 05:15:34;;;;;;;4.90;1.88;;;;;;;;;;5004185;28;20699;-72
2022/09/01 05:18:01;;;;;;;3.90;1.98;;;;;;;;;;5010404;28;20219;-73
2022/09/01 05:20:28;;;;;;;3.05;1.92;;;;;;;;;;5011486;28;20190;-70
2022/09/01 05:22:56;;;;;;;4.18;2.05;;;;;;;;;;5009764;28;20321;-71
2022/09/01 05:25:22;;;;;;;1.25;1.17;;;;;;;;;;5012216;28;20566;-70
2022/09/01 05:27:51;;;;;;;3.15;1.77;;;;;;;;;;5016613;28;20185;-70
2022/09/01 05:30:17;;;;;;;1.85;1.48;;;;;;;;;;5020227;28;20183;-70
2022/09/01 05:32:47;;;;;;;3.88;1.88;;;;;;;;;;5012699;28;21207;-73
2022/09/01 05:35:13;;;;;;;4.60;1.85;;;;;;;;;;5013935;28;20199;-73
2022/09/01 05:37:38;;;;;;;2.42;1.77;;;;;;;;;;5017634;28;20181;-72
2022/09/01 05:40:05;;;;;;;3.33;1.75;;;;;;;;;;5014265;28;20475;-73
2022/09/01 05:42:31;;;;;;;4.30;1.55;;;;;;;;;;5012813;28;20557;-73
2022/09/01 05:44:56;;;;;;;1.63;1.48;;;;;;;;;;5013777;28;20278;-72
2022/09/01 05:47:22;;;;;;;2.05;1.55;;;;;;;;;;5014851;28;20182;-72
2022/09/01 05:49:48;;;;;;;1.92;1.50;;;;;;;;;;5012248;28;20182;-71
2022/09/01 05:52:14;;;;;;;1.60;1.50;;;;;;;;;;5008847;28;20586;-72
2022/09/01 05:54:40;;;;;;;1.80;1.60;;;;;;;;;;5012892;28;20187;-71
2022/09/01 05:57:06;;;;;;;5.22;2.00;;;;;;;;;;5012889;28;20258;-71
2022/09/01 05:59:32;;;;;;;1.65;1.38;;;;;;;;;;5015373;28;20175;-70
2022/09/01 06:01:57;;;;;;;4.45;1.80;;;;;;;;;;4987035;28;20607;-73
2022/09/01 06:04:26;;;;;;;2.65;1.38;;;;;;;;;;5003147;28;20264;-71
2022/09/01 06:06:53;;;;;;;4.70;1.77;;;;;;;;;;5011737;28;20179;-71
2022/09/01 06:09:19;;;;;;;2.83;1.58;;;;;;;;;;5016229;28;20182;-71
2022/09/01 06:11:45;;;;;;;4.88;1.77;;;;;;;;;;5018934;28;20305;-72
2022/09/01 06:14:11;;;;;;;2.17;1.75;;;;;;;;;;5017548;28;20187;-71
2022/09/01 06:16:37;;;;;;;2.10;1.88;;;;;;;;;;4996100;28;20726;-71
2022/09/01 06:19:02;;;;;;;3.10;1.70;;;;;;;;;;5010606;28;20314;-71
2022/09/01 06:21:27;;;;;;;2.72;1.80;;;;;;;;;;5010372;28;20649;-71
2022/09/01 06:23:53;;;;;;;3.22;1.70;;;;;;;;;;5010585;28;20672;-71
2022/09/01 06:26:22;;;;;;;2.80;1.48;;;;;;;;;;5011473;28;20167;-71
2022/09/01 06:28:48;;;;;;;2.75;2.15;;;;;;;;;;5010845;28;20182;-70
2022/09/01 06:31:14;;;;;;;2.42;1.58;;;;;;;;;;5011221;28;20468;-72
2022/09/01 06:33:39;;;;;;;2.08;1.35;;;;;;;;;;5011416;28;20179;-72
2022/09/01 06:36:07;;;;;;;4.75;1.75;;;;;;;;;;5011129;28;20668;-71
2022/09/01 06:38:32;;;;;;;3.08;1.38;;;;;;;;;;5011192;28;20657;-71
2022/09/01 06:40:59;;;;;;;1.52;1.30;;;;;;;;;;5008001;28;20187;-72
2022/09/01 06:43:24;;;;;;;1.45;1.30;;;;;;;;;;4992004;28;20190;-72
2022/09/01 06:45:53;;;;;;;2.40;1.30;;;;;;;;;;5008403;28;20209;-72
2022/09/01 06:48:18;;;;;;;2.03;1.65;;;;;;;;;;5005762;28;20179;-72
2022/09/01 06:50:44;;;;;;;3.20;1.48;;;;;;;;;;5008974;28;20178;-72
2022/09/01 06:53:10;;;;;;;2.00;1.30;;;;;;;;;;5017525;28;20206;-72
2022/09/01 06:55:36;;;;;;;4.30;1.42;;;;;;;;;;5010259;28;20202;-70
2022/09/01 06:58:04;;;;;;;1.80;1.40;;;;;;;;;;5011314;28;20179;-71
2022/09/01 07:00:29;;;;;;;2.88;1.77;;;;;;;;;;5017987;28;20174;-71
2022/09/01 07:02:55;;;;;;;2.03;1.45;;;;;;;;;;5004945;28;20179;-71
2022/09/01 07:05:21;;;;;;;4.03;1.70;;;;;;;;;;5011226;28;20214;-71
2022/09/01 07:07:50;;;;;;;1.88;1.25;;;;;;;;;;5011193;28;20174;-73
2022/09/01 07:10:19;;;;;;;4.00;1.70;;;;;;;;;;4995647;28;20671;-71
2022/09/01 07:12:45;;;;;;;2.75;1.60;;;;;;;;;;5005994;28;20202;-72
2022/09/01 07:15:11;;;;;;;3.03;1.60;;;;;;;;;;5010268;28;20577;-71
2022/09/01 07:17:40;;;;;;;2.08;1.40;;;;;;;;;;5003328;28;20171;-72
2022/09/01 07:20:06;;;;;;;2.72;1.42;;;;;;;;;;4990137;28;20564;-70
2022/09/01 07:22:31;;;;;;;3.38;2.03;;;;;;;;;;5010456;28;20313;-70
2022/09/01 07:24:57;;;;;;;3.53;1.73;;;;;;;;;;5007583;28;20704;-71
2022/09/01 07:27:26;;;;;;;2.08;1.55;;;;;;;;;;5010801;28;20413;-71
2022/09/01 07:29:53;;;;;;;2.22;1.42;;;;;;;;;;4994450;28;20345;-72
2022/09/01 07:32:19;;;;;;;2.53;1.40;;;;;;;;;;5010433;28;20234;-72
2022/09/01 07:34:44;;;;;;;3.28;1.38;;;;;;;;;;4991518;28;20280;-72
2022/09/01 07:37:10;;;;;;;2.75;1.48;;;;;;;;;;5016190;28;20170;-71
2022/09/01 07:39:35;;;;;;;2.33;1.60;;;;;;;;;;4998025;28;20179;-71
2022/09/01 07:42:08;;;;;;;3.05;1.42;;;;;;;;;;5018661;28;20174;-72
2022/09/01 07:44:34;;;;;;;2.17;1.23;;;;;;;;;;5011873;28;20556;-72
2022/09/01 07:47:00;;;;;;;1.58;1.20;;;;;;;;;;5019983;28;20178;-72
2022/09/01 07:49:26;;;;;;;4.30;1.40;;;;;;;;;;5014320;28;20566;-71
2022/09/01 07:51:51;;;;;;;4.50;1.40;;;;;;;;;;5015302;28;20518;-72
2022/09/01 07:54:16;;;;;;;3.35;0.93;;;;;;;;;;5012806;28;20274;-72
2022/09/01 07:56:43;;;;;;;3.73;1.40;;;;;;;;;;5009524;28;20556;-72
2022/09/01 07:59:08;;;;;;;2.15;1.23;;;;;;;;;;4996431;28;20502;-72
2022/09/01 08:01:34;;;;;;;3.38;1.30;;;;;;;;;;5007060;28;20183;-73
2022/09/01 08:04:01;;;;;;;1.63;0.95;;;;;;;;;;5007355;28;20701;-71
2022/09/01 08:06:27;;;;;;;2.25;1.10;;;;;;;;;;5011300;28;20675;-72
2022/09/01 08:08:53;;;;;;;2.40;1.10;;;;;;;;;;5008473;28;20214;-72
2022/09/01 08:11:21;;;;;;;3.88;1.02;;;;;;;;;;5010538;28;20576;-72
2022/09/01 08:13:47;;;;;;;1.25;0.98;;;;;;;;;;5009417;28;20179;-72
2022/09/01 08:16:13;;;;;;;1.67;1.13;;;;;;;;;;4994969;28;20632;-70
2022/09/01 08:18:38;;;;;;;1.30;1.10;;;;;;;;;;4999838;28;20178;-70
2022/09/01 08:21:07;;;;;;;1.90;1.05;;;;;;;;;;5014489;28;20175;-70
2022/09/01 08:23:33;;;;;;;1.50;0.80;;;;;;;;;;5011550;28;20664;-72
2022/09/01 08:26:03;;;;;;;2.08;0.95;;;;;;;;;;4995025;28;20214;-72
2022/09/01 08:28:28;;;;;;;1.35;0.70;;;;;;;;;;5010062;28;20185;-72
2022/09/01 08:30:54;;;;;;;1.10;0.80;;;;;;;;;;5005201;28;20188;-71
2022/09/01 08:33:19;;;;;;;1.48;0.95;;;;;;;;;;5010287;28;20934;-71
2022/09/01 08:35:46;;;;;;;1.50;0.90;;;;;;;;;;5010741;28;20202;-72
2022/09/01 08:38:11;;;;;;;2.28;0.95;;;;;;;;;;5010072;28;20183;-74
2022/09/01 08:40:37;;;;;;;2.15;1.30;;;;;;;;;;5011516;28;20213;-72
2022/09/01 08:43:14;;;;;;;1.33;0.90;;;;;;;;;;5010826;28;20175;-72
2022/09/01 08:45:52;;;;;;;3.42;1.40;;;;;;;;;;5011258;28;20265;-71
2022/09/01 08:48:24;;;;;;;2.45;0.90;;;;;;;;;;5011217;28;20632;-70
2022/09/01 08:50:55;;;;;;;3.83;1.40;;;;;;;;;;5012273;28;20194;-71
2022/09/01 08:53:32;;;;;;;1.27;0.90;;;;;;;;;;5006711;28;20198;-72
2022/09/01 08:55:58;;;;;;;2.17;1.13;;;;;;;;;;5012101;28;20175;-72
2022/09/01 08:58:24;;;;;;;1.27;0.50;;;;;;;;;;5012865;28;20554;-72
2022/09/01 09:00:57;;;;;;;1.35;0.70;;;;;;;;;;5008863;28;20264;-71
2022/09/01 09:03:23;;;;;;;1.20;0.77;;;;;;;;;;5009500;28;20191;-72
2022/09/01 09:05:57;;;;;;;2.40;1.00;;;;;;;;;;5009852;28;20572;-72
2022/09/01 09:08:41;;;;;;;1.92;0.90;;;;;;;;;;5008386;28;20186;-71
2022/09/01 09:11:19;;;;;;;1.63;0.95;;;;;;;;;;5006579;28;20234;-70
2022/09/01 09:13:56;;;;;;;3.20;0.90;;;;;;;;;;5008073;28;20664;-72
2022/09/01 09:16:27;;;;;;;1.90;1.08;;;;;;;;;;5009725;28;20218;-70
2022/09/01 09:18:53;;;;;;;1.27;0.63;;;;;;;;;;5008960;28;20548;-71
2022/09/01 09:21:37;;;;;;;2.05;0.98;;;;;;;;;;5004481;28;20181;-71
2022/09/01 09:24:14;;;;;;;1.45;0.90;;;;;;;;;;5005303;28;20202;-70
2022/09/01 09:26:39;;;;;;;1.67;0.77;;;;;;;;;;4993579;28;20648;-71
2022/09/01 09:29:05;;;;;;;3.73;0.70;;;;;;;;;;5011271;28;20186;-71
2022/09/01 09:31:37;;;;;;;1.07;0.80;;;;;;;;;;5006969;28;20498;-71
2022/09/01 09:34:02;;;;;;;1.77;0.70;;;;;;;;;;5012387;28;20431;-71
2022/09/01 09:36:30;;;;;;;2.13;0.73;;;;;;;;;;5008659;28;20187;-71
2022/09/01 09:39:06;;;;;;;1.33;0.50;;;;;;;;;;5009541;28;20179;-71
2022/09/01 09:41:31;;;;;;;2.40;0.90;;;;;;;;;;5009003;28;20183;-71
2022/09/01 09:43:58;;;;;;;1.10;0.47;;;;;;;;;;5010361;28;20203;-72
2022/09/01 09:46:23;;;;;;;1.10;0.50;;;;;;;;;;4994289;28;20182;-71
2022/09/01 09:49:04;;;;;;;1.67;0.90;;;;;;;;;;5010385;28;20653;-70
2022/09/01 09:51:29;;;;;;;2.13;0.55;;;;;;;;;;5008767;28;20241;-69
2022/09/01 09:54:09;;;;;;;4.03;1.07;;;;;;;;;;5009321;28;20218;-69
2022/09/01 09:56:34;;;;;;;0.95;0.50;;;;;;;;;;4995784;28;21222;-70
2022/09/01 09:58:59;;;;;;;2.37;0.60;;;;;;;;;;5012280;28;20258;-70
2022/09/01 10:01:29;;;;;;;3.35;0.60;;;;;;;;;;5008244;28;20428;-70
2022/09/01 10:03:56;;;;;;;3.28;0.70;;;;;;;;;;5006964;28;20199;-70
2022/09/01 10:06:35;;;;;;;2.97;0.93;;;;;;;;;;5012101;28;20190;-70
2022/09/01 10:09:03;;;;;;;1.25;0.60;;;;;;;;;;4999935;28;20186;-70
2022/09/01 10:11:32;;;;;;;1.23;0.93;;;;;;;;;;5007356;28;20217;-70
2022/09/01 10:13:57;;;;;;;0.85;0.60;;;;;;;;;;5007250;28;20226;-70
2022/09/01 10:16:30;;;;;;;2.22;0.60;;;;;;;;;;5010285;28;20644;-71
2022/09/01 10:18:59;;;;;;;1.88;0.93;;;;;;;;;;5009589;28;20182;-70
2022/09/01 10:21:28;;;;;;;1.30;0.80;;;;;;;;;;5007232;28;20607;-71
2022/09/01 10:23:53;;;;;;;0.60;0.50;;;;;;;;;;5008503;28;20267;-71
2022/09/01 10:26:23;;;;;;;3.73;0.63;;;;;;;;;;5009299;28;20600;-71
2022/09/01 10:28:55;;;;;;;1.10;0.63;;;;;;;;;;5010128;28;20831;-70
2022/09/01 10:31:20;;;;;;;4.75;0.60;;;;;;;;;;5009712;28;20207;-71
2022/09/01 10:33:46;;;;;;;0.82;0.40;;;;;;;;;;5009387;28;20266;-70
2022/09/01 10:36:12;;;;;;;2.92;0.45;;;;;;;;;;5008069;28;20183;-71
2022/09/01 10:38:37;;;;;;;1.35;0.60;;;;;;;;;;5008351;28;20275;-71
2022/09/01 10:41:09;;;;;;;0.60;0.40;;;;;;;;;;5003647;28;20642;-70
2022/09/01 10:43:40;;;;;;;1.50;0.57;;;;;;;;;;5011084;28;20249;-71
2022/09/01 10:46:17;;;;;;;2.90;0.52;;;;;;;;;;4992043;28;20186;-70
2022/09/01 10:48:42;;;;;;;5.18;0.95;;;;;;;;;;5010357;28;20215;-71
2022/09/01 10:51:14;;;;;;;1.10;0.57;;;;;;;;;;5008778;28;20556;-71
2022/09/01 10:53:43;;;;;;;2.00;0.60;;;;;;;;;;5016477;28;20175;-71
2022/09/01 10:56:23;;;;;;;0.98;0.60;;;;;;;;;;4982214;28;20189;-71
2022/09/01 10:59:01;;;;;;;0.80;0.60;;;;;;;;;;5001064;28;20171;-71
2022/09/01 11:01:38;;;;;;;0.85;0.50;;;;;;;;;;5013281;28;20675;-71
2022/09/01 11:04:04;;;;;;;0.70;0.43;;;;;;;;;;5011292;28;20226;-73
2022/09/01 11:06:50;;;;;;;1.30;0.75;;;;;;;;;;5017884;28;20186;-72
2022/09/01 11:09:20;;;;;;;1.00;0.40;;;;;;;;;;4996683;28;20194;-73
2022/09/01 11:11:50;;;;;;;4.25;0.50;;;;;;;;;;5009939;28;20199;-72
2022/09/01 11:14:16;;;;;;;1.15;0.40;;;;;;;;;;5014920;28;20193;-72
2022/09/01 11:16:42;;;;;;;0.63;0.40;;;;;;;;;;5011841;28;20649;-72
2022/09/01 11:19:16;;;;;;;0.75;0.50;;;;;;;;;;5013473;28;20179;-72
2022/09/01 11:21:42;;;;;;;1.02;0.50;;;;;;;;;;5011053;28;20174;-73
2022/09/01 11:24:45;;;;;;;1.23;0.40;;;;;;;;;;5013288;28;20245;-72
2022/09/01 11:27:11;;;;;;;0.75;0.70;;;;;;;;;;5014167;28;20656;-72
2022/09/01 11:29:56;;;;;;;0.60;0.22;;;;;;;;;;4998675;28;20187;-72
2022/09/01 11:32:24;;;;;;;1.05;0.47;;;;;;;;;;5011863;28;20208;-72
2022/09/01 11:34:50;;;;;;;1.92;0.50;;;;;;;;;;5013002;28;20191;-72
2022/09/01 11:37:16;;;;;;;1.40;0.60;;;;;;;;;;5013242;28;20649;-72
2022/09/01 11:39:46;;;;;;;1.70;0.70;;;;;;;;;;5012090;28;20373;-72
2022/09/01 11:42:20;;;;;;;1.63;0.40;;;;;;;;;;5016166;28;20238;-73
2022/09/01 11:44:51;;;;;;;0.70;0.50;;;;;;;;;;5011752;28;20191;-72
2022/09/01 11:47:18;;;;;;;1.27;0.60;;;;;;;;;;5012575;28;20898;-71
2022/09/01 11:49:55;;;;;;;0.52;0.40;;;;;;;;;;5011361;28;20186;-72
2022/09/01 11:52:22;;;;;;;1.38;0.52;;;;;;;;;;5011210;28;20588;-72
2022/09/01 11:54:47;;;;;;;2.22;0.47;;;;;;;;;;5013405;28;20199;-71
2022/09/01 11:57:16;;;;;;;0.57;0.35;;;;;;;;;;5013761;28;20178;-72
2022/09/01 11:59:42;;;;;;;1.23;0.50;;;;;;;;;;5007453;28;20241;-72
2022/09/01 12:02:07;;;;;;;2.13;0.73;;;;;;;;;;4987486;28;20183;-72
2022/09/01 12:04:35;;;;;;;0.73;0.43;;;;;;;;;;5007961;28;20237;-72
2022/09/01 12:07:02;;;;;;;1.00;0.47;;;;;;;;;;5008393;28;20187;-73
2022/09/01 12:09:38;;;;;;;2.30;0.75;;;;;;;;;;5010722;28;20282;-73
2022/09/01 12:12:04;;;;;;;4.85;0.40;;;;;;;;;;5008729;28;20297;-73
2022/09/01 12:14:30;;;;;;;1.27;0.60;;;;;;;;;;5007709;28;20650;-73
2022/09/01 12:16:59;;;;;;;3.22;0.55;;;;;;;;;;5007070;28;20222;-73
2022/09/01 12:19:26;;;;;;;1.10;0.55;;;;;;;;;;5008460;28;20178;-71
2022/09/01 12:21:59;;;;;;;2.05;0.57;;;;;;;;;;5015334;28;20240;-73
2022/09/01 12:24:25;;;;;;;4.93;0.52;;;;;;;;;;5010955;28;20191;-72
2022/09/01 12:26:56;;;;;;;0.90;0.40;;;;;;;;;;5012627;28;20217;-72
2022/09/01 12:29:22;;;;;;;1.85;0.35;;;;;;;;;;5005631;28;20171;-72
2022/09/01 12:31:49;;;;;;;1.95;0.40;;;;;;;;;;5010153;28;20734;-71
2022/09/01 12:34:25;;;;;;;0.60;0.57;;;;;;;;;;5008704;28;20585;-73
2022/09/01 12:37:04;;;;;;;2.10;0.50;;;;;;;;;;5009409;28;20186;-71
2022/09/01 12:39:44;;;;;;;1.33;0.30;;;;;;;;;;5012260;28;20726;-72
2022/09/01 12:42:18;;;;;;;0.90;0.43;;;;;;;;;;5012395;28;20656;-72
2022/09/01 12:44:45;;;;;;;0.50;0.30;;;;;;;;;;5007704;28;20258;-72
2022/09/01 12:47:14;;;;;;;1.13;0.95;;;;;;;;;;5009383;28;20187;-72
2022/09/01 12:49:41;;;;;;;1.10;0.28;;;;;;;;;;5010408;28;20210;-72
2022/09/01 12:52:18;;;;;;;3.85;0.90;;;;;;;;;;5008567;28;20195;-71
2022/09/01 12:54:48;;;;;;;2.63;0.35;;;;;;;;;;5006958;28;20571;-72
2022/09/01 12:57:27;;;;;;;0.95;0.50;;;;;;;;;;5004163;28;20179;-73
2022/09/01 13:00:11;;;;;;;1.15;0.50;;;;;;;;;;5004257;28;20644;-71
2022/09/01 13:02:38;;;;;;;1.67;0.47;;;;;;;;;;5006256;28;20193;-71
2022/09/01 13:05:22;;;;;;;0.90;0.40;;;;;;;;;;5011411;28;20591;-71
2022/09/01 13:07:47;;;;;;;1.15;0.50;;;;;;;;;;5011537;28;20214;-72
2022/09/01 13:10:13;;;;;;;0.93;0.40;;;;;;;;;;5010054;28;20602;-73
2022/09/01 13:12:40;;;;;;;2.28;0.30;;;;;;;;;;5009835;28;20198;-72
2022/09/01 13:15:06;;;;;;;2.20;1.10;;;;;;;;;;5005230;28;20240;-73
2022/09/01 13:17:31;;;;;;;0.45;0.32;;;;;;;;;;5012567;28;20335;-72
2022/09/01 13:19:56;;;;;;;1.27;0.47;;;;;;;;;;5007050;28;20178;-72
2022/09/01 13:22:21;;;;;;;0.40;0.30;;;;;;;;;;5011634;28;20225;-73
2022/09/01 13:24:47;;;;;;;0.63;0.30;;;;;;;;;;5010656;28;20214;-71
2022/09/01 13:27:13;;;;;;;2.27;0.30;;;;;;;;;;5009926;28;20186;-72
2022/09/01 13:29:39;;;;;;;0.75;0.40;;;;;;;;;;5009432;28;20209;-72
2022/09/01 13:32:05;;;;;;;0.40;0.30;;;;;;;;;;5010396;28;20203;-72
2022/09/01 13:34:31;;;;;;;0.57;0.40;;;;;;;;;;5012570;28;20187;-72
2022/09/01 13:36:56;;;;;;;1.17;0.63;;;;;;;;;;5011945;28;20738;-72
2022/09/01 13:39:21;;;;;;;1.03;0.43;;;;;;;;;;5011523;28;20182;-72
2022/09/01 13:41:47;;;;;;;0.93;0.35;;;;;;;;;;5009794;28;20434;-72
2022/09/01 13:44:12;;;;;;;0.45;0.40;;;;;;;;;;5008222;28;20533;-72
2022/09/01 13:46:37;;;;;;;2.78;0.50;;;;;;;;;;5004250;28;20229;-72
2022/09/01 13:49:03;;;;;;;1.80;0.50;;;;;;;;;;5010036;28;20183;-73
2022/09/01 13:51:29;;;;;;;1.77;0.40;;;;;;;;;;5014708;28;20488;-72
2022/09/01 13:53:54;;;;;;;3.40;0.30;;;;;;;;;;5014680;28;20199;-74
2022/09/01 13:56:19;;;;;;;2.05;0.45;;;;;;;;;;5014700;28;20167;-71
2022/09/01 13:58:44;;;;;;;1.38;0.50;;;;;;;;;;5015890;28;20186;-72
2022/09/01 14:01:10;;;;;;;5.53;0.53;;;;;;;;;;5013603;28;20705;-71
2022/09/01 14:03:36;;;;;;;1.13;0.40;;;;;;;;;;5013976;28;20601;-74
2022/09/01 14:06:01;;;;;;;0.95;0.40;;;;;;;;;;5011164;28;20214;-72
2022/09/01 14:08:27;;;;;;;1.37;0.40;;;;;;;;;;5012508;28;20198;-73
2022/09/01 14:10:52;;;;;;;0.55;0.40;;;;;;;;;;5013609;28;20423;-72
2022/09/01 14:13:18;;;;;;;0.77;0.30;;;;;;;;;;4998512;28;20207;-73
2022/09/01 14:15:45;;;;;;;0.73;0.45;;;;;;;;;;5007146;28;20476;-71
2022/09/01 14:18:12;;;;;;;0.90;0.40;;;;;;;;;;5011778;28;20170;-72
2022/09/01 14:20:39;;;;;;;2.22;0.50;;;;;;;;;;5010019;28;20183;-72
2022/09/01 14:23:06;;;;;;;2.28;0.45;;;;;;;;;;5011479;28;20212;-71
2022/09/01 14:25:32;;;;;;;2.22;0.55;;;;;;;;;;5009230;28;20230;-71
2022/09/01 14:27:57;;;;;;;0.75;0.50;;;;;;;;;;5009129;28;20209;-72
2022/09/01 14:30:24;;;;;;;1.38;0.90;;;;;;;;;;4991807;28;20236;-72
2022/09/01 14:32:50;;;;;;;0.73;0.50;;;;;;;;;;5010163;28;20202;-72
2022/09/01 14:35:16;;;;;;;1.85;0.30;;;;;;;;;;5003590;28;20190;-71
2022/09/01 14:37:42;;;;;;;4.40;0.70;;;;;;;;;;5010859;28;20183;-74
2022/09/01 14:40:09;;;;;;;2.00;0.43;;;;;;;;;;5010367;28;20678;-72
2022/09/01 14:42:35;;;;;;;1.77;0.50;;;;;;;;;;5010621;28;20597;-72
2022/09/01 14:45:02;;;;;;;1.35;0.57;;;;;;;;;;5008384;28;20694;-73
2022/09/01 14:47:27;;;;;;;1.80;0.30;;;;;;;;;;5008428;28;20198;-73
2022/09/01 14:49:53;;;;;;;2.33;0.57;;;;;;;;;;5009609;28;20178;-72